Time;durP1;ratioP1;P1;durP2;ratioP2;P2;SDS_P1;SDS_P2;PMS_P1;PMS_P2;Temp;Humidity;BMP_temperature;BMP_pressure;BME280_temperature;BME280_humidity;BME280_pressure;Samples;Min_cycle;Max_cycle;Signal;HPM_P1;HPM_P2
2022/04/12 00:01:03;;;;;;;11.40;6.28;;;;;;;5.93;77.34;100023.56;5072971;28;20032;-78
2022/04/12 00:03:28;;;;;;;11.57;6.25;;;;;;;5.90;77.81;100026.25;5107919;22;20056;-84
2022/04/12 00:05:53;;;;;;;10.68;5.72;;;;;;;5.88;77.94;100022.75;5074605;28;20044;-84
2022/04/12 00:08:19;;;;;;;10.40;6.40;;;;;;;5.87;78.06;100015.72;5073082;28;20017;-85
2022/04/12 00:10:45;;;;;;;10.52;5.72;;;;;;;5.85;78.08;100017.50;5073908;28;20481;-84
2022/04/12 00:13:12;;;;;;;10.13;6.22;;;;;;;5.82;78.68;100009.63;5073616;28;20366;-83
2022/04/12 00:15:37;;;;;;;9.93;6.18;;;;;;;5.78;78.34;99999.94;5072472;28;20056;-84
2022/04/12 00:20:47;;;;;;;9.93;6.10;;;;;;;5.77;78.61;100003.50;5073002;28;20055;-84
2022/04/12 00:23:14;;;;;;;12.27;7.13;;;;;;;5.77;78.28;99998.22;5072605;28;20020;-83
2022/04/12 00:25:44;;;;;;;11.57;6.00;;;;;;;5.77;78.36;99998.22;5075640;28;20454;-83
2022/04/12 00:28:10;;;;;;;10.52;6.15;;;;;;;5.80;78.02;99998.13;5076299;28;20364;-84
2022/04/12 00:30:35;;;;;;;10.82;6.32;;;;;;;5.82;78.07;99985.75;5076866;28;20461;-84
2022/04/12 00:33:00;;;;;;;12.05;6.88;;;;;;;5.83;77.83;99987.50;5075559;28;20043;-83
2022/04/12 00:35:26;;;;;;;12.35;6.15;;;;;;;5.80;78.35;99987.53;5075906;28;20031;-83
2022/04/12 00:37:52;;;;;;;11.95;6.60;;;;;;;5.80;77.46;99983.13;5076217;28;20031;-84
2022/04/12 00:40:18;;;;;;;10.70;6.32;;;;;;;5.84;77.22;99980.44;5076037;28;20385;-84
2022/04/12 00:42:45;;;;;;;12.07;6.50;;;;;;;5.80;77.53;99974.28;5075959;28;20485;-84
2022/04/12 00:45:11;;;;;;;11.63;6.60;;;;;;;5.77;77.39;99971.72;5075659;28;20086;-84
2022/04/12 00:47:36;;;;;;;10.25;6.05;;;;;;;5.74;77.86;99974.41;5075499;28;20103;-83
2022/04/12 00:50:03;;;;;;;10.48;6.65;;;;;;;5.70;78.57;99971.78;5075322;28;20028;-83
2022/04/12 00:52:29;;;;;;;14.20;6.88;;;;;;;5.67;79.01;99970.97;5075362;28;20031;-84
2022/04/12 00:54:55;;;;;;;10.57;6.43;;;;;;;5.63;79.31;99969.25;5075797;28;20028;-84
2022/04/12 00:57:20;;;;;;;11.52;6.53;;;;;;;5.56;80.69;99968.47;5075889;28;20108;-84
2022/04/12 00:59:46;;;;;;;10.95;6.38;;;;;;;5.48;80.33;99964.16;5076042;28;20111;-84
2022/04/12 01:02:12;;;;;;;10.13;6.20;;;;;;;5.50;80.08;99965.91;5077480;28;20025;-84
2022/04/12 01:04:37;;;;;;;12.15;6.90;;;;;;;5.47;79.86;99959.75;5076725;28;20017;-84
2022/04/12 01:07:03;;;;;;;11.18;6.38;;;;;;;5.47;79.80;99965.06;5076378;28;20031;-84
2022/04/12 01:09:29;;;;;;;9.77;6.40;;;;;;;5.56;78.17;99963.19;5077039;28;20421;-83
2022/04/12 01:11:56;;;;;;;10.20;5.95;;;;;;;5.59;77.95;99963.16;5075505;28;20020;-84
2022/04/12 01:14:23;;;;;;;11.73;6.55;;;;;;;5.65;77.52;99957.72;5075295;28;20470;-84
2022/04/12 01:16:49;;;;;;;11.00;5.97;;;;;;;5.74;76.99;99962.03;5075251;28;20062;-84
2022/04/12 01:19:15;;;;;;;10.57;6.18;;;;;;;5.77;76.38;99961.09;5075599;28;20389;-84
2022/04/12 01:21:54;;;;;;;10.30;5.85;;;;;;;5.79;75.14;99951.34;5075312;28;20488;-86
2022/04/12 01:24:23;;;;;;;12.63;6.13;;;;;;;5.78;76.42;99944.28;5075170;28;20032;-84
2022/04/12 01:26:49;;;;;;;10.30;6.57;;;;;;;5.69;77.00;99935.63;5075644;28;20099;-84
2022/04/12 01:29:14;;;;;;;12.70;6.88;;;;;;;5.55;78.90;99941.09;5076397;28;20082;-85
2022/04/12 01:31:40;;;;;;;14.23;6.40;;;;;;;5.41;80.19;99933.34;5075966;28;20017;-84
2022/04/12 01:34:05;;;;;;;10.68;6.65;;;;;;;5.41;80.13;99938.66;5074506;28;20029;-84
2022/04/12 01:36:30;;;;;;;11.82;6.40;;;;;;;5.44;79.22;99938.59;5073686;28;20024;-84
2022/04/12 01:38:56;;;;;;;11.18;6.65;;;;;;;5.32;81.46;99933.50;5074730;28;20032;-84
2022/04/12 01:41:22;;;;;;;10.93;6.50;;;;;;;5.39;79.82;99928.97;5074530;28;20447;-84
2022/04/12 01:43:47;;;;;;;11.02;7.38;;;;;;;5.29;82.13;99929.13;5074545;28;20028;-84
2022/04/12 01:46:12;;;;;;;10.32;7.15;;;;;;;5.22;82.75;99925.69;5074762;28;20031;-84
2022/04/12 01:48:38;;;;;;;11.52;6.88;;;;;;;5.19;82.82;99917.78;5075796;28;20028;-84
2022/04/12 01:51:03;;;;;;;12.00;6.50;;;;;;;5.20;81.54;99916.91;5075550;28;20037;-84
2022/04/12 01:53:29;;;;;;;10.93;6.30;;;;;;;5.25;80.84;99919.47;5075168;28;20024;-84
2022/04/12 01:55:54;;;;;;;13.18;6.50;;;;;;;5.24;80.62;99905.34;5075200;28;20512;-84
2022/04/12 01:58:19;;;;;;;11.27;6.38;;;;;;;5.31;79.64;99913.22;5075417;28;20349;-84
2022/04/12 02:00:45;;;;;;;11.57;6.45;;;;;;;5.32;79.33;99907.00;5075363;28;20381;-84
2022/04/12 02:03:10;;;;;;;10.90;6.28;;;;;;;5.35;79.15;99907.84;5073679;28;20038;-84
2022/04/12 02:05:35;;;;;;;11.75;6.05;;;;;;;5.31;79.83;99911.44;5075394;28;20056;-84
2022/04/12 02:08:02;;;;;;;8.50;5.78;;;;;;;5.31;80.03;99914.06;5074975;28;20384;-84
2022/04/12 02:10:27;;;;;;;10.82;6.10;;;;;;;5.22;80.57;99904.50;5075036;28;20031;-83
2022/04/12 02:12:52;;;;;;;12.45;6.55;;;;;;;5.20;80.51;99903.66;5075064;28;20385;-84
2022/04/12 02:15:18;;;;;;;10.30;6.10;;;;;;;5.24;80.13;99915.06;5075088;28;20073;-84
2022/04/12 02:17:43;;;;;;;11.68;6.57;;;;;;;5.22;79.91;99916.88;5074971;28;20157;-84
2022/04/12 02:20:09;;;;;;;10.98;6.13;;;;;;;5.23;79.57;99919.47;5074980;28;20016;-84
2022/04/12 02:22:35;;;;;;;9.75;6.15;;;;;;;5.21;79.97;99918.63;5074939;28;20024;-84
2022/04/12 02:25:01;;;;;;;9.80;5.85;;;;;;;5.25;78.95;99917.72;5074353;28;20024;-84
2022/04/12 02:27:26;;;;;;;13.63;5.95;;;;;;;5.24;78.29;99915.06;5074804;28;20024;-84
2022/04/12 02:29:51;;;;;;;10.20;6.00;;;;;;;5.25;79.44;99908.88;5074929;28;20031;-84
2022/04/12 02:32:17;;;;;;;12.32;5.95;;;;;;;5.23;80.11;99919.47;5074981;28;20543;-84
2022/04/12 02:34:42;;;;;;;12.98;6.15;;;;;;;5.09;81.65;99910.84;5074790;28;20058;-84
2022/04/12 02:37:07;;;;;;;11.10;7.00;;;;;;;5.07;82.48;99907.38;5074226;28;20059;-84
2022/04/12 02:39:33;;;;;;;11.27;6.80;;;;;;;4.94;83.80;99907.53;5074356;28;20539;-84
2022/04/12 02:41:58;;;;;;;11.60;7.18;;;;;;;4.92;84.77;99899.59;5074147;28;20024;-85
2022/04/12 02:44:23;;;;;;;10.77;6.82;;;;;;;4.90;85.59;99904.03;5073461;28;20020;-84
2022/04/12 02:46:48;;;;;;;11.95;7.55;;;;;;;4.89;86.14;99904.06;5073173;28;20362;-84
2022/04/12 02:49:14;;;;;;;10.93;7.15;;;;;;;4.85;86.79;99904.97;5073396;28;20016;-83
2022/04/12 02:51:39;;;;;;;9.77;6.65;;;;;;;4.74;88.10;99905.13;5073488;28;20042;-84
2022/04/12 02:54:04;;;;;;;10.65;6.95;;;;;;;4.74;87.52;99895.41;5073440;28;20094;-84
2022/04/12 02:56:30;;;;;;;10.63;6.93;;;;;;;4.71;87.92;99900.75;5073417;28;20554;-84
2022/04/12 02:58:55;;;;;;;13.90;6.95;;;;;;;4.53;89.22;99896.56;5073886;28;20024;-83
2022/04/12 03:01:20;;;;;;;12.38;7.43;;;;;;;4.50;89.59;99896.59;5073306;28;20028;-83
2022/04/12 03:03:46;;;;;;;12.38;7.57;;;;;;;4.52;90.32;99890.38;5072997;28;20036;-83
2022/04/12 03:06:11;;;;;;;12.02;7.00;;;;;;;4.46;90.16;99887.78;5073012;28;20031;-84
2022/04/12 03:08:37;;;;;;;12.20;7.47;;;;;;;4.42;90.60;99894.03;5073024;28;20029;-84
2022/04/12 03:11:02;;;;;;;13.05;7.70;;;;;;;4.35;91.38;99899.38;5072785;28;20105;-84
2022/04/12 03:13:28;;;;;;;11.15;7.05;;;;;;;4.31;92.05;99896.78;5073558;28;20082;-84
2022/04/12 03:15:53;;;;;;;12.48;7.53;;;;;;;4.22;92.35;99882.78;5072828;28;20177;-84
2022/04/12 03:18:18;;;;;;;11.63;7.70;;;;;;;4.24;92.99;99886.28;5073257;28;20111;-86
2022/04/12 03:20:44;;;;;;;11.90;7.30;;;;;;;4.19;94.51;99892.50;5072825;28;20020;-85
2022/04/12 03:23:09;;;;;;;10.98;7.60;;;;;;;4.18;94.24;99893.38;5073043;28;20017;-82
2022/04/12 03:25:34;;;;;;;11.15;7.55;;;;;;;4.19;94.74;99900.44;5072813;28;20017;-85
2022/04/12 03:28:00;;;;;;;14.10;7.85;;;;;;;4.12;94.69;99903.13;5073107;28;20054;-85
2022/04/12 03:30:25;;;;;;;10.98;7.10;;;;;;;4.08;94.21;99901.41;5072519;28;20354;-85
2022/04/12 03:32:51;;;;;;;11.27;7.43;;;;;;;4.09;94.41;99903.16;5072686;28;20016;-85
2022/04/12 03:35:16;;;;;;;11.75;7.50;;;;;;;4.09;94.20;99908.44;5072582;28;20025;-84
2022/04/12 03:37:41;;;;;;;10.55;7.53;;;;;;;4.07;94.20;99902.28;5073115;28;20063;-84
2022/04/12 03:40:07;;;;;;;11.35;6.70;;;;;;;4.01;95.26;99897.06;5072619;28;20054;-84
2022/04/12 03:42:32;;;;;;;10.98;7.47;;;;;;;3.96;95.70;99890.94;5071022;28;20031;-83
2022/04/12 03:44:57;;;;;;;11.63;7.28;;;;;;;3.94;95.04;99887.44;5072513;28;20032;-84
2022/04/12 03:47:23;;;;;;;11.57;7.85;;;;;;;3.90;95.36;99890.13;5071080;28;20030;-84
2022/04/12 03:49:48;;;;;;;10.88;6.75;;;;;;;3.93;95.67;99890.97;5072349;28;20035;-84
2022/04/12 03:52:13;;;;;;;13.63;7.35;;;;;;;3.96;93.79;99885.66;5073084;28;20070;-83
2022/04/12 03:54:39;;;;;;;15.40;7.68;;;;;;;4.00;93.77;99890.03;5073394;28;20038;-83
2022/04/12 03:57:04;;;;;;;12.38;7.60;;;;;;;4.02;93.54;99890.91;5072943;28;20032;-83
2022/04/12 03:59:29;;;;;;;11.95;7.50;;;;;;;3.95;93.79;99891.81;5074420;28;20020;-84
2022/04/12 04:01:55;;;;;;;12.25;7.07;;;;;;;3.97;93.43;99892.72;5076774;28;20078;-84
2022/04/12 04:04:20;;;;;;;13.27;7.68;;;;;;;3.89;95.05;99888.34;5076894;28;20052;-83
2022/04/12 04:06:45;;;;;;;11.40;7.20;;;;;;;3.93;94.73;99890.97;5077084;28;20036;-83
2022/04/12 04:09:11;;;;;;;12.05;7.25;;;;;;;3.88;94.70;99893.66;5077093;28;20051;-83
2022/04/12 04:11:39;;;;;;;12.15;7.32;;;;;;;3.85;94.76;99891.91;5077077;28;20058;-83
2022/04/12 04:14:05;;;;;;;10.85;7.18;;;;;;;3.85;95.87;99891.91;5077399;28;20385;-83
2022/04/12 04:16:31;;;;;;;11.55;7.32;;;;;;;3.86;95.37;99883.13;5077023;28;20020;-83
2022/04/12 04:18:56;;;;;;;10.23;6.90;;;;;;;3.78;95.00;99882.31;5076915;28;20516;-83
2022/04/12 04:21:21;;;;;;;11.77;7.25;;;;;;;3.76;95.36;99868.25;5076911;28;20123;-84
2022/04/12 04:23:47;;;;;;;10.93;7.25;;;;;;;3.65;96.36;99861.28;5077408;28;20032;-84
2022/04/12 04:26:12;;;;;;;11.93;7.45;;;;;;;3.56;96.72;99858.69;5076791;28;20085;-83
2022/04/12 04:28:39;;;;;;;13.20;8.02;;;;;;;3.51;98.20;99857.84;5077716;28;20020;-83
2022/04/12 04:31:04;;;;;;;14.07;8.50;;;;;;;3.42;98.38;99843.88;5077240;28;20025;-83
2022/04/12 04:33:30;;;;;;;13.45;8.45;;;;;;;3.39;99.93;99838.59;5076119;28;20020;-83
2022/04/12 04:35:55;;;;;;;11.25;7.43;;;;;;;3.46;98.79;99836.78;5076472;28;20183;-82
2022/04/12 04:38:20;;;;;;;12.15;7.30;;;;;;;3.50;98.36;99835.00;5075909;28;20543;-83
2022/04/12 04:40:45;;;;;;;11.57;7.45;;;;;;;3.52;97.71;99838.50;5075299;28;20055;-83
2022/04/12 04:43:11;;;;;;;15.05;7.80;;;;;;;3.54;97.52;99834.06;5077297;28;20028;-82
2022/04/12 04:45:37;;;;;;;13.32;7.50;;;;;;;3.57;97.58;99836.69;5077316;28;20458;-83
2022/04/12 04:48:04;;;;;;;12.23;6.97;;;;;;;3.64;95.77;99841.03;5075833;28;20023;-84
2022/04/12 04:50:31;;;;;;;11.10;6.63;;;;;;;3.73;93.42;99848.00;5076913;28;20017;-83
2022/04/12 04:52:58;;;;;;;12.82;6.55;;;;;;;3.89;91.78;99854.00;5077432;28;20170;-83
2022/04/12 04:55:23;;;;;;;12.75;6.30;;;;;;;4.03;90.90;99850.38;5076344;28;20492;-83
2022/04/12 04:57:53;;;;;;;12.88;6.72;;;;;;;4.12;89.64;99850.25;5078059;28;20052;-83
2022/04/12 05:00:19;;;;;;;12.77;6.55;;;;;;;4.18;89.34;99849.31;5076970;28;20495;-83
2022/04/12 05:02:46;;;;;;;13.15;6.70;;;;;;;4.20;89.47;99846.69;5076958;28;20032;-84
2022/04/12 05:05:12;;;;;;;12.38;6.72;;;;;;;4.19;90.39;99837.00;5076309;28;20127;-84
2022/04/12 05:07:39;;;;;;;11.38;6.57;;;;;;;4.19;90.54;99839.63;5075696;28;20024;-82
2022/04/12 05:10:05;;;;;;;15.40;7.68;;;;;;;4.15;92.05;99836.13;5075400;28;20082;-83
2022/04/12 05:12:31;;;;;;;12.13;6.72;;;;;;;4.15;92.15;99843.22;5076182;28;20473;-83
2022/04/12 05:14:56;;;;;;;11.85;6.82;;;;;;;4.19;91.10;99850.22;5076981;28;20024;-84
2022/04/12 05:17:25;;;;;;;12.13;7.13;;;;;;;4.20;91.72;99844.03;5076475;28;20029;-83
2022/04/12 05:19:52;;;;;;;11.63;6.38;;;;;;;4.20;92.42;99846.69;5075147;28;20039;-83
2022/04/12 05:22:17;;;;;;;12.93;7.00;;;;;;;4.20;92.58;99842.25;5076512;28;20029;-84
2022/04/12 05:24:43;;;;;;;14.57;7.25;;;;;;;4.22;93.01;99842.25;5076560;28;20031;-83
2022/04/12 05:27:08;;;;;;;12.15;7.20;;;;;;;4.21;92.46;99838.72;5077124;28;20104;-83
2022/04/12 05:29:33;;;;;;;17.73;7.05;;;;;;;4.26;93.40;99846.59;5076912;28;20104;-83
2022/04/12 05:31:59;;;;;;;10.50;7.10;;;;;;;4.28;93.40;99849.25;5077218;28;20120;-84
2022/04/12 05:34:24;;;;;;;14.32;7.00;;;;;;;4.29;93.79;99854.50;5076675;28;20050;-83
2022/04/12 05:36:49;;;;;;;12.73;7.10;;;;;;;4.32;93.54;99856.25;5076310;28;20029;-83
2022/04/12 05:39:14;;;;;;;13.02;6.55;;;;;;;4.39;91.86;99862.31;5076972;28;20093;-84
2022/04/12 05:41:40;;;;;;;12.80;6.45;;;;;;;4.46;91.68;99864.00;5076336;28;20545;-83
2022/04/12 05:44:05;;;;;;;11.30;7.10;;;;;;;4.49;92.57;99869.25;5074593;28;20024;-83
2022/04/12 05:46:31;;;;;;;10.30;6.53;;;;;;;4.53;92.51;99871.00;5075066;28;20108;-83
2022/04/12 05:48:56;;;;;;;10.77;6.72;;;;;;;4.60;91.85;99877.06;5075877;28;20043;-84
2022/04/12 05:51:21;;;;;;;12.73;7.07;;;;;;;4.66;91.44;99884.06;5074732;28;20016;-83
2022/04/12 05:53:46;;;;;;;11.95;6.90;;;;;;;4.76;91.16;99882.19;5074948;28;20064;-83
2022/04/12 05:56:12;;;;;;;10.60;6.28;;;;;;;4.91;89.89;99886.41;5075773;28;20021;-83
2022/04/12 05:58:40;;;;;;;11.70;6.03;;;;;;;5.01;88.18;99889.78;5076341;28;20037;-83
2022/04/12 06:01:05;;;;;;;10.40;5.55;;;;;;;5.19;86.79;99901.91;5075208;28;20028;-83
2022/04/12 06:03:31;;;;;;;11.43;5.75;;;;;;;5.30;86.28;99903.53;5126234;22;20036;-85
2022/04/12 06:05:56;;;;;;;11.27;5.68;;;;;;;5.48;83.93;99899.72;5076050;28;20035;-85
2022/04/12 06:08:22;;;;;;;10.50;5.72;;;;;;;5.56;83.72;99895.19;5076016;28;20028;-84
2022/04/12 06:10:50;;;;;;;12.00;5.40;;;;;;;5.59;84.32;99895.13;5074839;28;20385;-84
2022/04/12 06:13:15;;;;;;;12.23;5.80;;;;;;;5.61;83.84;99902.19;5074498;28;20470;-85
2022/04/12 06:15:41;;;;;;;11.70;5.82;;;;;;;5.64;84.38;99907.44;5074828;28;20060;-83
2022/04/12 06:18:07;;;;;;;8.43;5.18;;;;;;;5.66;83.57;99909.16;5073853;28;20428;-83
2022/04/12 06:20:32;;;;;;;10.00;5.78;;;;;;;5.72;84.15;99915.28;5073354;28;20020;-83
2022/04/12 06:22:58;;;;;;;9.93;5.57;;;;;;;5.84;81.62;99911.53;5072639;28;20397;-84
2022/04/12 06:25:23;;;;;;;7.63;4.93;;;;;;;5.99;80.76;99900.69;5072844;28;20129;-84
2022/04/12 06:27:53;;;;;;;9.65;5.75;;;;;;;6.04;82.71;99908.53;5074578;28;20094;-84
2022/04/12 06:30:23;;;;;;;10.20;5.47;;;;;;;6.17;80.48;99911.00;5073232;28;20124;-84
2022/04/12 06:32:49;;;;;;;10.27;5.00;;;;;;;6.26;80.93;99900.25;5073914;28;20393;-84
2022/04/12 06:35:15;;;;;;;9.43;5.57;;;;;;;6.35;81.37;99900.06;5074314;28;20020;-84
2022/04/12 06:37:42;;;;;;;8.75;5.05;;;;;;;6.52;79.68;99901.50;5074442;28;20023;-84
2022/04/12 06:40:09;;;;;;;8.45;5.25;;;;;;;6.65;76.27;99911.91;5074537;28;20031;-84
2022/04/12 06:42:38;;;;;;;8.27;5.40;;;;;;;6.75;78.11;99908.13;5074220;28;20028;-85
2022/04/12 06:45:04;;;;;;;9.50;5.22;;;;;;;6.88;77.46;99907.91;5072705;28;20016;-84
2022/04/12 06:47:32;;;;;;;10.98;5.53;;;;;;;7.00;76.33;99910.31;5074084;28;20087;-84
2022/04/12 06:49:58;;;;;;;10.90;5.80;;;;;;;7.14;75.78;99907.34;5074226;28;20024;-85
2022/04/12 06:52:23;;;;;;;8.50;4.80;;;;;;;7.31;74.65;99899.91;5072425;28;20016;-83
2022/04/12 06:54:49;;;;;;;14.13;5.85;;;;;;;7.40;74.11;99905.00;5072625;28;20370;-84
2022/04/12 06:57:15;;;;;;;9.02;5.43;;;;;;;7.54;74.57;99901.16;5074292;28;20033;-82
2022/04/12 06:59:41;;;;;;;9.85;5.65;;;;;;;7.66;73.99;99900.84;5072881;28;20017;-84
2022/04/12 07:02:07;;;;;;;10.05;5.13;;;;;;;7.82;72.65;99897.81;5073755;28;20021;-84
2022/04/12 07:04:32;;;;;;;10.02;5.40;;;;;;;7.87;73.65;99890.59;5073742;28;20544;-83
2022/04/12 07:06:59;;;;;;;10.80;5.22;;;;;;;7.96;72.71;99896.59;5072313;28;20038;-84
2022/04/12 07:09:27;;;;;;;10.77;5.32;;;;;;;8.06;71.44;99903.44;5073658;28;20052;-84
2022/04/12 07:11:53;;;;;;;10.25;5.68;;;;;;;8.21;72.55;99911.91;5074217;28;20024;-83
2022/04/12 07:14:18;;;;;;;10.23;6.00;;;;;;;8.29;72.35;99909.94;5072419;28;20432;-83
2022/04/12 07:16:44;;;;;;;8.88;5.22;;;;;;;8.24;69.17;99911.84;5073625;28;20021;-85
2022/04/12 07:19:09;;;;;;;11.13;5.45;;;;;;;8.23;69.24;99907.44;5072820;28;20028;-85
2022/04/12 07:21:35;;;;;;;10.68;5.45;;;;;;;8.26;70.95;99899.38;5073258;28;20508;-84
2022/04/12 07:24:03;;;;;;;13.98;6.22;;;;;;;8.28;70.79;99913.50;5072561;28;20016;-84
2022/04/12 07:26:28;;;;;;;8.52;5.03;;;;;;;8.31;70.59;99905.44;5072541;28;20020;-84
2022/04/12 07:28:54;;;;;;;12.15;5.28;;;;;;;8.46;72.00;99903.28;5073717;28;20366;-84
2022/04/12 07:31:19;;;;;;;11.98;5.68;;;;;;;8.60;69.93;99906.47;5073895;28;20025;-83
2022/04/12 07:33:44;;;;;;;8.77;5.40;;;;;;;8.74;68.04;99906.97;5072417;28;20366;-84
2022/04/12 07:36:10;;;;;;;13.20;5.18;;;;;;;8.87;68.42;99916.34;5077710;28;20051;-83
2022/04/12 07:38:35;;;;;;;10.68;4.97;;;;;;;8.95;68.97;99918.81;5076169;28;20024;-83
2022/04/12 07:41:00;;;;;;;10.25;4.97;;;;;;;9.02;69.99;99917.69;5077833;28;20055;-83
2022/04/12 07:43:26;;;;;;;11.60;5.47;;;;;;;9.14;67.94;99916.47;5077864;28;20028;-83
2022/04/12 07:45:51;;;;;;;10.05;5.82;;;;;;;9.26;68.11;99917.88;5078189;28;20031;-83
2022/04/12 07:48:16;;;;;;;9.93;5.47;;;;;;;9.38;67.11;99918.44;5078169;28;20377;-83
2022/04/12 07:50:42;;;;;;;12.00;5.07;;;;;;;9.49;65.85;99910.09;5077761;28;20028;-84
2022/04/12 07:53:07;;;;;;;11.13;5.63;;;;;;;9.55;68.01;99914.34;5077717;28;20024;-83
2022/04/12 07:55:32;;;;;;;9.93;5.45;;;;;;;9.54;66.88;99915.28;5078156;28;20020;-84
2022/04/12 07:57:57;;;;;;;10.70;5.43;;;;;;;9.55;68.65;99912.56;5082731;28;20032;-84
2022/04/12 08:00:23;;;;;;;9.73;5.35;;;;;;;9.60;68.38;99905.31;5075831;28;20027;-85
2022/04/12 08:02:49;;;;;;;11.38;5.50;;;;;;;9.70;68.98;99911.19;5075519;28;20033;-85
2022/04/12 08:05:15;;;;;;;10.20;5.88;;;;;;;9.86;67.96;99909.81;5075889;28;20082;-84
2022/04/12 08:07:47;;;;;;;11.88;4.97;;;;;;;9.90;67.32;99907.00;5077391;28;20024;-85
2022/04/12 08:10:13;;;;;;;9.45;5.10;;;;;;;10.04;67.11;99908.34;5077222;28;20099;-85
2022/04/12 08:12:38;;;;;;;11.27;5.55;;;;;;;10.22;67.23;99903.28;5075725;28;20052;-84
2022/04/12 08:15:05;;;;;;;10.05;5.15;;;;;;;10.36;67.71;99902.81;5077042;28;20074;-85
2022/04/12 08:17:31;;;;;;;10.25;5.85;;;;;;;10.46;66.81;99896.19;5075619;28;20073;-85
2022/04/12 08:19:56;;;;;;;9.30;5.43;;;;;;;10.58;65.94;99897.59;5077047;28;20385;-84
2022/04/12 08:22:21;;;;;;;9.15;5.30;;;;;;;10.60;63.99;99900.22;5075295;28;20481;-83
2022/04/12 08:24:46;;;;;;;9.32;5.38;;;;;;;10.65;66.24;99908.91;5076591;28;20029;-85
2022/04/12 08:27:13;;;;;;;9.07;5.07;;;;;;;10.79;65.30;99911.09;5075146;28;20035;-84
2022/04/12 08:29:38;;;;;;;8.48;5.68;;;;;;;10.93;64.50;99905.22;5076812;28;20100;-85
2022/04/12 08:32:04;;;;;;;11.82;5.50;;;;;;;11.04;63.32;99904.81;5075068;28;20500;-84
2022/04/12 08:34:29;;;;;;;12.75;5.80;;;;;;;11.06;62.94;99904.75;5076817;28;20536;-83
2022/04/12 08:36:54;;;;;;;11.10;5.50;;;;;;;11.17;63.14;99909.69;5075415;28;20028;-83
2022/04/12 08:39:19;;;;;;;9.55;5.00;;;;;;;11.36;63.66;99903.63;5076848;28;20020;-83
2022/04/12 08:41:45;;;;;;;15.80;6.72;;;;;;;11.39;62.55;99898.16;5076342;28;20478;-83
2022/04/12 08:44:11;;;;;;;9.65;5.55;;;;;;;11.63;62.89;99884.72;5076250;28;20024;-85
2022/04/12 08:46:37;;;;;;;8.75;5.30;;;;;;;11.88;62.84;99889.03;5074651;28;20020;-84
2022/04/12 08:49:04;;;;;;;10.38;5.55;;;;;;;11.94;60.11;99891.47;5074972;28;20036;-83
2022/04/12 08:51:30;;;;;;;9.80;5.60;;;;;;;12.06;62.50;99891.91;5075163;28;20046;-83
2022/04/12 08:53:59;;;;;;;10.25;5.30;;;;;;;12.28;61.24;99886.50;5075971;28;20016;-84
2022/04/12 08:56:26;;;;;;;9.77;5.38;;;;;;;12.43;60.69;99888.56;5076466;28;20020;-84
2022/04/12 08:58:51;;;;;;;13.40;5.70;;;;;;;12.49;60.00;99882.94;5074760;28;20024;-84
2022/04/12 09:01:16;;;;;;;8.70;5.25;;;;;;;12.53;60.09;99889.91;5074977;28;20029;-84
2022/04/12 09:03:41;;;;;;;9.25;5.75;;;;;;;12.72;59.70;99899.78;5075553;28;20028;-83
2022/04/12 09:06:10;;;;;;;9.95;5.03;;;;;;;13.03;58.82;99897.50;5074725;28;20145;-87
2022/04/12 09:08:35;;;;;;;11.20;5.75;;;;;;;13.14;57.20;99895.19;5074492;28;20021;-86
2022/04/12 09:11:05;;;;;;;10.85;5.53;;;;;;;13.28;56.06;99885.63;5074895;28;20035;-83
2022/04/12 09:13:31;;;;;;;9.80;5.50;;;;;;;13.44;55.93;99879.50;5075998;28;20035;-85
2022/04/12 09:15:58;;;;;;;11.85;5.82;;;;;;;13.55;55.13;99882.56;5076043;28;20020;-85
2022/04/12 09:18:36;;;;;;;12.00;6.05;;;;;;;13.69;56.75;99873.84;5075889;28;20079;-84
2022/04/12 09:21:14;;;;;;;12.73;6.18;;;;;;;14.03;57.04;99867.69;5075342;28;20028;-84
2022/04/12 09:23:49;;;;;;;11.60;5.60;;;;;;;14.07;54.53;99867.47;5074360;28;20394;-85
2022/04/12 09:26:16;;;;;;;13.38;6.03;;;;;;;13.94;53.37;99867.22;5074491;28;20024;-85
2022/04/12 09:28:43;;;;;;;10.90;5.95;;;;;;;14.03;53.97;99860.53;5076205;28;20039;-86
2022/04/12 09:31:17;;;;;;;12.32;6.15;;;;;;;14.14;53.16;99859.97;5074355;28;20497;-84
2022/04/12 09:33:43;;;;;;;8.88;5.00;;;;;;;14.37;54.03;99862.41;5073896;28;20077;-84
2022/04/12 09:36:09;;;;;;;12.25;5.70;;;;;;;14.37;51.81;99871.31;5075290;28;20020;-84
2022/04/12 09:38:37;;;;;;;10.10;5.38;;;;;;;14.48;52.29;99870.72;5075290;28;20516;-85
2022/04/12 09:41:17;;;;;;;10.95;5.82;;;;;;;14.64;52.71;99857.34;5074360;28;20029;-85
2022/04/12 09:43:52;;;;;;;11.85;5.93;;;;;;;14.85;53.14;99851.75;5075414;28;20052;-85
2022/04/12 09:46:18;;;;;;;11.65;6.20;;;;;;;15.01;52.17;99855.44;5075081;28;20032;-85
2022/04/12 09:48:48;;;;;;;12.13;5.82;;;;;;;15.25;51.34;99858.59;5074886;28;20073;-86
2022/04/12 09:51:14;;;;;;;12.00;6.00;;;;;;;15.20;51.69;99852.59;5074911;28;20032;-83
2022/04/12 09:53:41;;;;;;;13.77;6.30;;;;;;;15.35;51.76;99847.28;5073574;28;20166;-83
2022/04/12 09:56:17;;;;;;;10.35;6.00;;;;;;;15.49;51.54;99839.28;5074832;28;20024;-84
2022/04/12 09:58:51;;;;;;;11.02;5.72;;;;;;;15.82;50.58;99844.63;5074498;28;20107;-85
2022/04/12 10:01:17;;;;;;;;;;;;;;;15.88;52.12;99852.31;5075397;28;20020;-85
2022/04/12 10:03:57;;;;;;;10.10;5.22;;;;;;;16.30;52.13;99843.59;5074693;28;20045;-86
2022/04/12 10:06:24;;;;;;;9.57;5.10;;;;;;;16.67;50.50;99844.97;5074856;28;20035;-86
2022/04/12 10:09:05;;;;;;;11.20;5.88;;;;;;;16.64;49.48;99838.81;5075293;28;20048;-82
2022/04/12 10:11:31;;;;;;;11.88;6.45;;;;;;;16.58;50.77;99841.88;5073375;28;20073;-83
2022/04/12 10:14:00;;;;;;;11.43;6.30;;;;;;;16.70;48.97;99836.69;5074742;28;20103;-84
2022/04/12 10:16:25;;;;;;;10.55;5.70;;;;;;;16.64;48.47;99838.81;5075253;28;20055;-86
2022/04/12 10:18:52;;;;;;;12.60;6.03;;;;;;;16.72;48.58;99840.16;5073061;28;20064;-84
2022/04/12 10:21:19;;;;;;;12.48;6.05;;;;;;;16.80;46.89;99829.72;5074006;28;20024;-82
2022/04/12 10:23:50;;;;;;;12.68;5.95;;;;;;;16.90;48.83;99823.75;5073359;28;20047;-82
2022/04/12 10:26:20;;;;;;;12.32;6.88;;;;;;;16.91;47.19;99828.16;5073080;28;20027;-83
2022/04/12 10:28:50;;;;;;;12.32;6.90;;;;;;;16.85;46.66;99818.66;5073317;28;20370;-83
2022/04/12 10:31:15;;;;;;;14.68;6.43;;;;;;;16.77;45.97;99823.66;5073028;28;20025;-83
2022/04/12 10:33:50;;;;;;;11.73;6.53;;;;;;;16.84;48.28;99831.28;5072954;28;20076;-84
2022/04/12 10:36:15;;;;;;;11.40;6.65;;;;;;;16.63;45.21;99828.97;5072820;28;20780;-82
2022/04/12 10:38:42;;;;;;;12.93;6.63;;;;;;;16.90;45.80;99823.75;5073202;28;20024;-81
2022/04/12 10:41:17;;;;;;;12.90;6.20;;;;;;;17.01;46.67;99818.50;5072941;28;20082;-82
2022/04/12 10:43:43;;;;;;;13.32;7.03;;;;;;;17.15;46.86;99831.13;5073124;28;20036;-83
2022/04/12 10:46:12;;;;;;;10.35;5.85;;;;;;;17.13;45.42;99829.47;5072983;28;20021;-82
2022/04/12 10:48:37;;;;;;;10.85;5.72;;;;;;;17.17;47.22;99839.13;5072985;28;20024;-83
2022/04/12 10:51:05;;;;;;;14.20;6.82;;;;;;;17.33;47.37;99838.13;5073370;28;20035;-81
2022/04/12 10:53:36;;;;;;;13.15;6.32;;;;;;;17.12;46.58;99834.00;5073288;28;20473;-84
2022/04/12 10:56:04;;;;;;;12.48;5.95;;;;;;;17.30;47.04;99818.47;5073942;28;20036;-82
2022/04/12 10:58:31;;;;;;;11.60;6.32;;;;;;;17.69;48.75;99798.84;5072941;28;20028;-83
2022/04/12 11:00:57;;;;;;;11.77;6.45;;;;;;;17.81;46.78;99791.72;5073926;28;20036;-82
2022/04/12 11:03:59;;;;;;;11.52;5.90;;;;;;;17.71;47.37;99780.69;5073771;28;20041;-83
2022/04/12 11:06:32;;;;;;;11.20;6.30;;;;;;;17.95;45.84;99771.88;4976083;28;20496;-83
2022/04/12 11:09:10;;;;;;;11.60;6.38;;;;;;;17.72;45.86;99777.03;5057971;28;20546;-83
2022/04/12 11:11:44;;;;;;;12.02;6.65;;;;;;;17.42;45.15;99770.06;5073731;28;20029;-83
2022/04/12 11:14:32;;;;;;;12.30;6.32;;;;;;;17.37;44.29;99772.22;5074717;28;20142;-85
2022/04/12 11:17:08;;;;;;;11.02;6.68;;;;;;;17.38;44.49;99779.31;5075407;28;20031;-85
2022/04/12 11:19:49;;;;;;;10.35;5.97;;;;;;;17.40;45.60;99777.38;5073856;28;20354;-84
2022/04/12 11:22:16;;;;;;;11.95;6.43;;;;;;;17.73;45.83;99778.75;5073351;28;20082;-84
2022/04/12 11:24:42;;;;;;;10.68;6.07;;;;;;;17.88;45.70;99778.69;5072916;28;20440;-83
2022/04/12 11:27:12;;;;;;;11.38;6.32;;;;;;;18.08;44.77;99776.44;5073743;28;20035;-83
2022/04/12 11:29:39;;;;;;;14.45;6.75;;;;;;;18.22;43.92;99782.72;5073072;28;20452;-84
2022/04/12 11:32:06;;;;;;;12.35;6.28;;;;;;;18.19;44.71;99787.31;5073775;28;20021;-83